Time;durP1;ratioP1;P1;durP2;ratioP2;P2;SDS_P1;SDS_P2;PMS_P1;PMS_P2;Temp;Humidity;BMP_temperature;BMP_pressure;BME280_temperature;BME280_humidity;BME280_pressure;Samples;Min_cycle;Max_cycle;Signal;HPM_P1;HPM_P2
2021/10/24 00:01:24;;;;;;;6.03;2.97;;;;;;;;;;5140132;27;20449;-74
2021/10/24 00:03:52;;;;;;;8.50;2.83;;;;;;;;;;5140406;27;20779;-73
2021/10/24 00:06:22;;;;;;;5.67;2.40;;;;;;;;;;5140184;27;20453;-73
2021/10/24 00:08:50;;;;;;;4.60;2.20;;;;;;;;;;5139530;27;20430;-74
2021/10/24 00:11:19;;;;;;;5.57;3.17;;;;;;;;;;5140872;27;20454;-74
2021/10/24 00:13:47;;;;;;;6.07;2.83;;;;;;;;;;5140449;27;20824;-74
2021/10/24 00:16:16;;;;;;;4.63;2.23;;;;;;;;;;5140960;27;20442;-74
2021/10/24 00:18:44;;;;;;;3.47;2.70;;;;;;;;;;5139685;27;20449;-73
2021/10/24 00:21:12;;;;;;;5.97;3.10;;;;;;;;;;5139482;27;20767;-73
2021/10/24 00:23:44;;;;;;;4.43;2.30;;;;;;;;;;5139770;27;20876;-73
2021/10/24 00:26:12;;;;;;;3.80;2.53;;;;;;;;;;5139787;27;20457;-73
2021/10/24 00:28:43;;;;;;;3.87;2.30;;;;;;;;;;5139883;27;20776;-74
2021/10/24 00:31:11;;;;;;;6.97;2.50;;;;;;;;;;5139684;27;20462;-74
2021/10/24 00:33:39;;;;;;;4.90;2.90;;;;;;;;;;5140395;27;20474;-74
2021/10/24 00:36:07;;;;;;;6.17;2.67;;;;;;;;;;5140840;27;20462;-74
2021/10/24 00:38:36;;;;;;;5.47;2.70;;;;;;;;;;5139628;27;20465;-74
2021/10/24 00:41:06;;;;;;;14.10;3.23;;;;;;;;;;5140403;27;20857;-74
2021/10/24 00:43:33;;;;;;;4.70;2.47;;;;;;;;;;5139944;27;20936;-74
2021/10/24 00:46:02;;;;;;;5.13;2.30;;;;;;;;;;5139999;27;20453;-74
2021/10/24 00:48:30;;;;;;;3.60;2.40;;;;;;;;;;5140123;27;20874;-74
2021/10/24 00:50:58;;;;;;;5.10;2.10;;;;;;;;;;5138757;27;20468;-74
2021/10/24 00:53:25;;;;;;;4.40;2.47;;;;;;;;;;5139008;27;20488;-74
2021/10/24 00:55:53;;;;;;;6.10;2.40;;;;;;;;;;5138226;27;20468;-74
2021/10/24 00:58:23;;;;;;;6.00;2.60;;;;;;;;;;5138657;27;20515;-74
2021/10/24 01:00:51;;;;;;;4.63;2.70;;;;;;;;;;5138187;27;20472;-74
2021/10/24 01:03:19;;;;;;;11.93;2.20;;;;;;;;;;5139004;27;20838;-73
2021/10/24 01:05:53;;;;;;;2.80;2.13;;;;;;;;;;5139325;27;20523;-73
2021/10/24 01:08:22;;;;;;;7.63;3.23;;;;;;;;;;5138330;27;20464;-74
2021/10/24 01:10:49;;;;;;;4.53;2.40;;;;;;;;;;5139056;27;20489;-73
2021/10/24 01:13:17;;;;;;;6.63;3.00;;;;;;;;;;5138762;27;20482;-74
2021/10/24 01:15:50;;;;;;;4.70;2.40;;;;;;;;;;5138547;27;20536;-74
2021/10/24 01:18:18;;;;;;;5.20;2.80;;;;;;;;;;5138688;27;20446;-73
2021/10/24 01:20:46;;;;;;;3.63;2.40;;;;;;;;;;5137559;27;20465;-73
2021/10/24 01:23:15;;;;;;;5.20;2.60;;;;;;;;;;5137688;27;20507;-73
2021/10/24 01:25:43;;;;;;;4.47;2.30;;;;;;;;;;5137830;27;20453;-73
2021/10/24 01:28:11;;;;;;;12.03;3.13;;;;;;;;;;5138297;27;20454;-73
2021/10/24 01:30:39;;;;;;;8.50;2.00;;;;;;;;;;5138281;27;20449;-73
2021/10/24 01:33:09;;;;;;;4.60;2.20;;;;;;;;;;5137735;27;20531;-74
2021/10/24 01:35:51;;;;;;;8.13;2.40;;;;;;;;;;5138524;27;20773;-73
2021/10/24 01:38:22;;;;;;;10.50;2.33;;;;;;;;;;5138200;27;20446;-73
2021/10/24 01:40:50;;;;;;;5.17;2.60;;;;;;;;;;5137461;27;20460;-73
2021/10/24 01:43:18;;;;;;;5.53;2.23;;;;;;;;;;5137745;27;20450;-73
2021/10/24 01:45:49;;;;;;;4.63;2.23;;;;;;;;;;5137424;27;20477;-74
2021/10/24 01:48:17;;;;;;;10.63;2.80;;;;;;;;;;5137471;27;20444;-74
2021/10/24 01:50:45;;;;;;;9.07;2.40;;;;;;;;;;5137885;27;20462;-74
2021/10/24 01:53:17;;;;;;;7.40;2.63;;;;;;;;;;5137940;27;20927;-74
2021/10/24 01:55:48;;;;;;;6.57;2.20;;;;;;;;;;5137663;27;20478;-74
2021/10/24 01:58:16;;;;;;;5.00;2.17;;;;;;;;;;5137310;27;20533;-74
2021/10/24 02:00:44;;;;;;;4.07;2.90;;;;;;;;;;5137450;27;20887;-74
2021/10/24 02:03:12;;;;;;;4.90;2.20;;;;;;;;;;5137126;27;20556;-74
2021/10/24 02:05:40;;;;;;;4.67;2.40;;;;;;;;;;5137781;27;20934;-74
2021/10/24 02:08:09;;;;;;;4.67;2.30;;;;;;;;;;5136286;27;20458;-74
2021/10/24 02:10:41;;;;;;;6.50;3.10;;;;;;;;;;5137353;27;20446;-74
2021/10/24 02:13:13;;;;;;;9.60;2.47;;;;;;;;;;5137743;27;20534;-74
2021/10/24 02:15:44;;;;;;;6.07;2.40;;;;;;;;;;5137256;27;20911;-73
2021/10/24 02:18:15;;;;;;;4.50;2.63;;;;;;;;;;5137561;27;20453;-73
2021/10/24 02:20:46;;;;;;;4.80;2.33;;;;;;;;;;5136573;27;20674;-73
2021/10/24 02:23:16;;;;;;;5.63;3.73;;;;;;;;;;5137319;27;20488;-74
2021/10/24 02:25:44;;;;;;;4.23;2.03;;;;;;;;;;5137175;27;20725;-73
2021/10/24 02:28:14;;;;;;;7.43;2.37;;;;;;;;;;5138509;27;20486;-73
2021/10/24 02:30:42;;;;;;;4.13;2.20;;;;;;;;;;5137852;27;20465;-73
2021/10/24 02:33:11;;;;;;;3.53;2.47;;;;;;;;;;5137437;27;20447;-73
2021/10/24 02:35:39;;;;;;;6.17;2.60;;;;;;;;;;5137963;27;20454;-73
2021/10/24 02:38:08;;;;;;;6.23;2.70;;;;;;;;;;5137549;27;20515;-73
2021/10/24 02:40:37;;;;;;;4.13;2.70;;;;;;;;;;5138347;27;20510;-73
2021/10/24 02:43:05;;;;;;;6.30;2.50;;;;;;;;;;5137338;27;20450;-73
2021/10/24 02:45:36;;;;;;;5.07;2.27;;;;;;;;;;5137590;27;20517;-73
2021/10/24 02:48:04;;;;;;;7.73;2.20;;;;;;;;;;5137235;27;20729;-73
2021/10/24 02:50:32;;;;;;;3.23;2.10;;;;;;;;;;5137506;27;20462;-73
2021/10/24 02:53:03;;;;;;;10.33;2.50;;;;;;;;;;5137237;28;20485;-73
2021/10/24 02:55:31;;;;;;;6.63;2.43;;;;;;;;;;5102387;28;20483;-73
2021/10/24 02:57:58;;;;;;;4.40;3.33;;;;;;;;;;5096865;28;20505;-73
2021/10/24 03:00:26;;;;;;;9.63;2.47;;;;;;;;;;5097031;28;20570;-73
2021/10/24 03:02:56;;;;;;;4.23;1.97;;;;;;;;;;5096749;28;20452;-73
2021/10/24 03:05:26;;;;;;;4.93;2.90;;;;;;;;;;5096504;28;20459;-73
2021/10/24 03:07:54;;;;;;;3.73;2.53;;;;;;;;;;5096322;28;20463;-73
2021/10/24 03:10:22;;;;;;;5.03;2.60;;;;;;;;;;5096259;28;20483;-73
2021/10/24 03:12:50;;;;;;;7.40;2.77;;;;;;;;;;5096922;28;20832;-73
2021/10/24 03:15:17;;;;;;;5.73;2.53;;;;;;;;;;5095875;28;20514;-73
2021/10/24 03:17:46;;;;;;;4.43;2.33;;;;;;;;;;5096662;28;20455;-73
2021/10/24 03:20:15;;;;;;;8.10;2.40;;;;;;;;;;5095743;28;20456;-73
2021/10/24 03:22:43;;;;;;;4.60;2.77;;;;;;;;;;5097431;28;20450;-73
2021/10/24 03:25:11;;;;;;;5.03;3.23;;;;;;;;;;5096853;28;20440;-73
2021/10/24 03:27:38;;;;;;;8.27;3.07;;;;;;;;;;5096562;28;20885;-73
2021/10/24 03:30:07;;;;;;;10.53;3.97;;;;;;;;;;5095694;28;20448;-73
2021/10/24 03:32:35;;;;;;;8.17;2.10;;;;;;;;;;5097485;28;20542;-73
2021/10/24 03:35:03;;;;;;;9.33;3.50;;;;;;;;;;5099915;28;20486;-73
2021/10/24 03:37:32;;;;;;;10.23;2.80;;;;;;;;;;5099408;28;20485;-73
2021/10/24 03:40:04;;;;;;;5.93;2.53;;;;;;;;;;5099450;28;20509;-73
2021/10/24 03:42:31;;;;;;;5.77;2.00;;;;;;;;;;5100365;28;20882;-73
2021/10/24 03:44:59;;;;;;;4.70;2.83;;;;;;;;;;5099559;28;20531;-73
2021/10/24 03:47:27;;;;;;;6.27;2.60;;;;;;;;;;5101042;28;20506;-73
2021/10/24 03:49:55;;;;;;;4.60;3.30;;;;;;;;;;5100838;28;20532;-73
2021/10/24 03:52:23;;;;;;;6.63;3.30;;;;;;;;;;5099401;28;20554;-73
2021/10/24 03:54:52;;;;;;;4.60;2.27;;;;;;;;;;5100742;28;20498;-73
2021/10/24 03:57:20;;;;;;;4.63;2.50;;;;;;;;;;5100448;28;20477;-73
2021/10/24 03:59:48;;;;;;;5.67;3.03;;;;;;;;;;5099339;28;20483;-73
2021/10/24 04:02:17;;;;;;;6.03;2.70;;;;;;;;;;5100540;28;20448;-74
2021/10/24 04:04:45;;;;;;;6.50;3.23;;;;;;;;;;5099358;28;20736;-74
2021/10/24 04:07:12;;;;;;;4.93;2.77;;;;;;;;;;5099490;28;20534;-74
2021/10/24 04:09:43;;;;;;;4.23;3.00;;;;;;;;;;5098934;28;20455;-74
2021/10/24 04:12:12;;;;;;;5.53;2.70;;;;;;;;;;5098954;28;20485;-74
2021/10/24 04:14:42;;;;;;;4.93;2.40;;;;;;;;;;5098607;28;20510;-74
2021/10/24 04:17:12;;;;;;;4.70;3.10;;;;;;;;;;5099401;28;20908;-73
2021/10/24 04:19:40;;;;;;;3.57;2.10;;;;;;;;;;5098705;28;20559;-74
2021/10/24 04:22:08;;;;;;;7.70;2.80;;;;;;;;;;5100164;28;20859;-73
2021/10/24 04:24:36;;;;;;;6.50;2.43;;;;;;;;;;5099542;28;20925;-74
2021/10/24 04:27:04;;;;;;;5.17;3.07;;;;;;;;;;5099671;28;20459;-73
2021/10/24 04:29:33;;;;;;;5.60;2.30;;;;;;;;;;5099176;28;20724;-73
2021/10/24 04:32:01;;;;;;;4.33;2.63;;;;;;;;;;5098762;28;20483;-73
2021/10/24 04:34:29;;;;;;;2.97;2.33;;;;;;;;;;5099307;28;20723;-73
2021/10/24 04:36:57;;;;;;;7.43;3.00;;;;;;;;;;5098236;28;20462;-73
2021/10/24 04:39:25;;;;;;;11.60;4.57;;;;;;;;;;5096678;28;20451;-73
2021/10/24 04:41:53;;;;;;;4.70;2.60;;;;;;;;;;5098594;28;20459;-73
2021/10/24 04:44:21;;;;;;;10.23;4.17;;;;;;;;;;5097337;28;20452;-74
2021/10/24 04:46:53;;;;;;;5.37;2.60;;;;;;;;;;5098524;28;20463;-73
2021/10/24 04:49:23;;;;;;;9.53;3.53;;;;;;;;;;5097596;28;20491;-73
2021/10/24 04:51:51;;;;;;;9.33;3.00;;;;;;;;;;5097546;28;20842;-73
2021/10/24 04:54:20;;;;;;;8.90;2.80;;;;;;;;;;5098661;28;20479;-73
2021/10/24 04:56:47;;;;;;;5.60;3.20;;;;;;;;;;5098403;28;20466;-73
2021/10/24 04:59:15;;;;;;;8.67;3.97;;;;;;;;;;5098236;28;20517;-73
2021/10/24 05:01:44;;;;;;;8.53;3.90;;;;;;;;;;5098674;28;20517;-73
2021/10/24 05:04:15;;;;;;;7.67;3.63;;;;;;;;;;5098495;28;20458;-74
2021/10/24 05:06:43;;;;;;;12.80;3.70;;;;;;;;;;5098814;28;20460;-74
2021/10/24 05:09:11;;;;;;;8.83;3.50;;;;;;;;;;5097646;28;20557;-74
2021/10/24 05:11:39;;;;;;;6.00;3.93;;;;;;;;;;5099042;28;20452;-74
2021/10/24 05:14:09;;;;;;;3.83;2.77;;;;;;;;;;5098968;28;20528;-74
2021/10/24 05:16:41;;;;;;;4.77;2.73;;;;;;;;;;5098099;28;20509;-74
2021/10/24 05:19:09;;;;;;;5.13;2.90;;;;;;;;;;5098028;28;20483;-74
2021/10/24 05:21:38;;;;;;;7.53;3.73;;;;;;;;;;5097842;28;20848;-74
2021/10/24 05:24:06;;;;;;;8.10;3.87;;;;;;;;;;5098361;28;20466;-73
2021/10/24 05:26:34;;;;;;;4.63;3.30;;;;;;;;;;5098592;28;20455;-73
2021/10/24 05:29:02;;;;;;;7.30;3.60;;;;;;;;;;5097492;28;20911;-73
2021/10/24 05:31:30;;;;;;;7.50;3.00;;;;;;;;;;5098516;28;20463;-72
2021/10/24 05:33:58;;;;;;;8.53;3.10;;;;;;;;;;5097898;28;20463;-73
2021/10/24 05:36:26;;;;;;;13.70;4.40;;;;;;;;;;5098144;28;20479;-73
2021/10/24 05:38:55;;;;;;;9.03;3.40;;;;;;;;;;5098046;28;20459;-75
2021/10/24 05:41:23;;;;;;;4.63;2.70;;;;;;;;;;5097578;28;20452;-73
2021/10/24 05:43:51;;;;;;;6.40;3.50;;;;;;;;;;5097585;28;20947;-74
2021/10/24 05:46:19;;;;;;;5.13;3.03;;;;;;;;;;5096862;28;20493;-74
2021/10/24 05:48:47;;;;;;;4.53;2.73;;;;;;;;;;5097671;28;20455;-74
2021/10/24 05:54:20;;;;;;;5.70;2.90;;;;;;;;;;5096359;28;20723;-74
2021/10/24 05:56:48;;;;;;;7.10;3.60;;;;;;;;;;5097662;28;20706;-74
2021/10/24 05:59:16;;;;;;;6.23;3.30;;;;;;;;;;5098126;28;20475;-74
2021/10/24 06:01:44;;;;;;;6.73;3.70;;;;;;;;;;5097921;28;20522;-73
2021/10/24 06:04:12;;;;;;;6.30;3.37;;;;;;;;;;5098096;28;20455;-74
2021/10/24 06:06:39;;;;;;;6.30;3.60;;;;;;;;;;5097220;28;20685;-74
2021/10/24 06:09:08;;;;;;;10.00;3.37;;;;;;;;;;5096613;28;20448;-73
2021/10/24 06:11:47;;;;;;;12.43;3.60;;;;;;;;;;5097769;28;20491;-74
2021/10/24 06:14:15;;;;;;;7.53;3.10;;;;;;;;;;5098820;28;20467;-73
2021/10/24 06:16:44;;;;;;;5.80;3.50;;;;;;;;;;5097721;28;20502;-73
2021/10/24 06:19:15;;;;;;;5.67;3.60;;;;;;;;;;5097230;28;20467;-74
2021/10/24 06:21:47;;;;;;;5.87;3.43;;;;;;;;;;5097055;28;20574;-73
2021/10/24 06:24:14;;;;;;;6.20;3.30;;;;;;;;;;5097315;28;20501;-73
2021/10/24 06:26:45;;;;;;;8.77;3.47;;;;;;;;;;5097450;28;20455;-74
2021/10/24 06:29:14;;;;;;;6.60;3.40;;;;;;;;;;5097159;28;20495;-73
2021/10/24 06:31:44;;;;;;;8.67;4.20;;;;;;;;;;5096979;28;20751;-73
2021/10/24 06:34:12;;;;;;;10.33;3.97;;;;;;;;;;5096576;28;20550;-73
2021/10/24 06:36:43;;;;;;;8.97;4.77;;;;;;;;;;5096378;28;20552;-73
2021/10/24 06:39:13;;;;;;;6.40;4.40;;;;;;;;;;5096867;28;20455;-72
2021/10/24 06:41:41;;;;;;;8.73;4.70;;;;;;;;;;5096851;28;20454;-73
2021/10/24 06:44:11;;;;;;;11.37;4.20;;;;;;;;;;5095991;28;20467;-72
2021/10/24 06:46:41;;;;;;;9.87;4.90;;;;;;;;;;5096347;28;20452;-73
2021/10/24 06:49:09;;;;;;;8.90;4.07;;;;;;;;;;5096123;28;20460;-73
2021/10/24 06:51:37;;;;;;;7.70;3.97;;;;;;;;;;5096684;28;20785;-72
2021/10/24 06:54:08;;;;;;;11.87;3.53;;;;;;;;;;5096101;28;20448;-73
2021/10/24 06:56:36;;;;;;;10.83;4.47;;;;;;;;;;5095785;28;20586;-73
2021/10/24 06:59:04;;;;;;;7.60;4.97;;;;;;;;;;5096393;28;20452;-73
2021/10/24 07:01:33;;;;;;;8.00;3.80;;;;;;;;;;5095993;28;20459;-74
2021/10/24 07:04:01;;;;;;;7.97;5.20;;;;;;;;;;5095863;28;20444;-73
2021/10/24 07:06:29;;;;;;;5.97;4.30;;;;;;;;;;5097521;28;20464;-73
2021/10/24 07:08:57;;;;;;;7.33;4.47;;;;;;;;;;5099976;28;20533;-73
2021/10/24 07:11:25;;;;;;;14.13;4.33;;;;;;;;;;5100963;28;20444;-73
2021/10/24 07:13:55;;;;;;;9.40;4.07;;;;;;;;;;5100189;28;20451;-73
2021/10/24 07:16:23;;;;;;;8.20;4.03;;;;;;;;;;5099689;28;20494;-73
2021/10/24 07:18:52;;;;;;;7.10;4.20;;;;;;;;;;5099929;28;20454;-73
2021/10/24 07:21:22;;;;;;;10.53;4.70;;;;;;;;;;5100644;28;20467;-73
2021/10/24 07:23:51;;;;;;;7.43;4.23;;;;;;;;;;5099821;28;20447;-73
2021/10/24 07:26:20;;;;;;;7.53;3.80;;;;;;;;;;5100281;28;20455;-73
2021/10/24 07:28:48;;;;;;;11.00;5.00;;;;;;;;;;5100512;28;20458;-73
2021/10/24 07:31:16;;;;;;;11.80;4.17;;;;;;;;;;5100235;28;20440;-73
2021/10/24 07:33:47;;;;;;;10.80;3.87;;;;;;;;;;5099762;28;20444;-73
2021/10/24 07:36:19;;;;;;;7.00;3.53;;;;;;;;;;5099089;28;20491;-73
2021/10/24 07:38:47;;;;;;;4.93;3.90;;;;;;;;;;5099355;28;20555;-73
2021/10/24 07:41:15;;;;;;;6.13;3.93;;;;;;;;;;5099966;28;20462;-73
2021/10/24 07:43:43;;;;;;;6.73;4.20;;;;;;;;;;5099210;28;20887;-74
2021/10/24 07:46:10;;;;;;;5.90;3.33;;;;;;;;;;5099436;28;20466;-73
2021/10/24 07:48:38;;;;;;;10.23;4.63;;;;;;;;;;5098854;28;20463;-74
2021/10/24 07:51:06;;;;;;;8.30;5.27;;;;;;;;;;5098938;28;20447;-73
2021/10/24 07:53:36;;;;;;;6.47;4.20;;;;;;;;;;5100319;28;20459;-74
2021/10/24 07:56:03;;;;;;;9.60;5.27;;;;;;;;;;5099098;28;20467;-73
2021/10/24 07:58:33;;;;;;;10.90;4.50;;;;;;;;;;5099996;28;20743;-73
2021/10/24 08:01:01;;;;;;;13.37;5.40;;;;;;;;;;5099307;28;20516;-74
2021/10/24 08:03:28;;;;;;;11.17;5.13;;;;;;;;;;5098944;28;20737;-73
2021/10/24 08:05:57;;;;;;;4.73;3.43;;;;;;;;;;5100369;28;20458;-74
2021/10/24 08:08:24;;;;;;;9.07;5.13;;;;;;;;;;5098488;28;20749;-74
2021/10/24 08:10:55;;;;;;;11.77;4.43;;;;;;;;;;5098693;28;20560;-74
2021/10/24 08:13:23;;;;;;;12.23;3.60;;;;;;;;;;5098117;28;20455;-74
2021/10/24 08:15:52;;;;;;;4.77;3.17;;;;;;;;;;5097865;28;20487;-73
2021/10/24 08:18:20;;;;;;;10.63;4.80;;;;;;;;;;5095491;28;20467;-74
2021/10/24 08:20:48;;;;;;;4.40;3.77;;;;;;;;;;5096939;28;20531;-73
2021/10/24 08:23:16;;;;;;;12.30;4.23;;;;;;;;;;5098140;28;20531;-73
2021/10/24 08:25:49;;;;;;;5.53;3.70;;;;;;;;;;5097781;28;20448;-73
2021/10/24 08:28:18;;;;;;;6.23;3.13;;;;;;;;;;5098605;28;20550;-73
2021/10/24 08:30:54;;;;;;;7.23;3.30;;;;;;;;;;5097458;28;20444;-74
2021/10/24 08:33:28;;;;;;;10.70;4.80;;;;;;;;;;5100486;28;20538;-73
2021/10/24 08:36:00;;;;;;;7.70;2.97;;;;;;;;;;5098047;28;20515;-73
2021/10/24 08:38:28;;;;;;;8.43;4.03;;;;;;;;;;5097035;28;20448;-73
2021/10/24 08:40:56;;;;;;;5.20;3.30;;;;;;;;;;5098438;28;20863;-74
2021/10/24 08:43:34;;;;;;;9.20;3.20;;;;;;;;;;5111790;28;20960;-74
2021/10/24 08:46:02;;;;;;;5.10;3.50;;;;;;;;;;5118011;28;20484;-73
2021/10/24 08:48:31;;;;;;;8.30;3.60;;;;;;;;;;5118577;28;20526;-73
2021/10/24 08:50:59;;;;;;;11.27;3.70;;;;;;;;;;5118394;27;20459;-74
2021/10/24 08:53:28;;;;;;;7.17;3.60;;;;;;;;;;5118496;28;20450;-74
2021/10/24 08:55:56;;;;;;;5.70;3.70;;;;;;;;;;5117819;28;20493;-73
2021/10/24 08:58:25;;;;;;;10.30;5.07;;;;;;;;;;5118394;28;21015;-73
2021/10/24 09:00:55;;;;;;;5.20;3.23;;;;;;;;;;5117755;28;20553;-74
2021/10/24 09:03:23;;;;;;;3.90;2.80;;;;;;;;;;5118225;28;20450;-74
2021/10/24 09:05:52;;;;;;;11.63;3.70;;;;;;;;;;5118919;28;20680;-73
2021/10/24 09:08:20;;;;;;;3.60;2.60;;;;;;;;;;5118303;28;20461;-73
2021/10/24 09:10:51;;;;;;;7.37;3.00;;;;;;;;;;5104830;28;20463;-74
2021/10/24 09:13:20;;;;;;;5.10;3.10;;;;;;;;;;5097615;28;20475;-74
2021/10/24 09:15:49;;;;;;;7.97;4.30;;;;;;;;;;5097014;28;20475;-74
2021/10/24 09:18:20;;;;;;;5.57;2.53;;;;;;;;;;5103515;28;20490;-74
2021/10/24 09:20:48;;;;;;;10.53;4.00;;;;;;;;;;5117564;28;20904;-74
2021/10/24 09:23:17;;;;;;;6.00;1.93;;;;;;;;;;5118478;28;20455;-74
2021/10/24 09:25:55;;;;;;;5.50;2.37;;;;;;;;;;5118253;28;20443;-74
2021/10/24 09:28:24;;;;;;;5.97;2.90;;;;;;;;;;5117447;28;20484;-74
2021/10/24 09:31:00;;;;;;;7.37;3.83;;;;;;;;;;5117697;28;20482;-73
2021/10/24 09:33:42;;;;;;;4.73;2.67;;;;;;;;;;5117837;28;20564;-73
2021/10/24 09:36:10;;;;;;;9.90;2.70;;;;;;;;;;5116772;28;20486;-73
2021/10/24 09:38:43;;;;;;;5.77;3.17;;;;;;;;;;5111003;28;20455;-73
2021/10/24 09:41:11;;;;;;;10.07;3.40;;;;;;;;;;5103278;28;20515;-74
2021/10/24 09:43:39;;;;;;;4.77;3.40;;;;;;;;;;5116699;28;20561;-75
2021/10/24 09:46:17;;;;;;;5.10;3.43;;;;;;;;;;5116918;28;20704;-73
2021/10/24 09:48:54;;;;;;;8.50;3.80;;;;;;;;;;5114102;28;20456;-75
2021/10/24 09:51:36;;;;;;;7.33;3.27;;;;;;;;;;5099978;28;20520;-73
2021/10/24 09:54:18;;;;;;;4.00;2.80;;;;;;;;;;5115061;28;20451;-75
2021/10/24 09:56:47;;;;;;;9.00;3.47;;;;;;;;;;5101586;28;20505;-73
2021/10/24 09:59:23;;;;;;;6.20;2.63;;;;;;;;;;5096845;28;20447;-74
2021/10/24 10:01:52;;;;;;;7.13;1.80;;;;;;;;;;5096857;28;20455;-74
2021/10/24 10:04:22;;;;;;;3.13;2.00;;;;;;;;;;5096785;28;20456;-74
2021/10/24 10:06:50;;;;;;;9.93;2.70;;;;;;;;;;5096924;28;20448;-74
2021/10/24 10:09:23;;;;;;;7.67;2.67;;;;;;;;;;5094541;28;20728;-74
2021/10/24 10:11:54;;;;;;;4.70;1.90;;;;;;;;;;5094151;28;20447;-75
2021/10/24 10:14:25;;;;;;;3.73;1.90;;;;;;;;;;5094935;28;20471;-74
2021/10/24 10:17:04;;;;;;;6.73;2.20;;;;;;;;;;5094308;28;20926;-74
2021/10/24 10:19:36;;;;;;;9.70;2.80;;;;;;;;;;5093806;28;20476;-74
2021/10/24 10:22:29;;;;;;;8.30;2.60;;;;;;;;;;5109048;28;20439;-74
2021/10/24 10:24:58;;;;;;;4.63;1.87;;;;;;;;;;5110051;28;20746;-75
2021/10/24 10:27:42;;;;;;;11.13;2.33;;;;;;;;;;5101747;28;20464;-75
2021/10/24 10:30:14;;;;;;;5.30;2.40;;;;;;;;;;5103686;28;21016;-75
2021/10/24 10:35:55;;;;;;;11.20;3.70;;;;;;;;;;5106397;28;20463;-74
2021/10/24 10:38:45;;;;;;;3.90;2.73;;;;;;;;;;5095570;28;20444;-74
2021/10/24 10:41:18;;;;;;;11.50;2.90;;;;;;;;;;5095304;28;21170;-73
2021/10/24 10:44:01;;;;;;;5.37;2.83;;;;;;;;;;5103505;28;20505;-74
2021/10/24 10:46:30;;;;;;;6.07;2.67;;;;;;;;;;5098492;28;20892;-74
2021/10/24 10:49:18;;;;;;;6.47;2.70;;;;;;;;;;5093545;28;20463;-73
2021/10/24 10:51:51;;;;;;;7.27;2.77;;;;;;;;;;5094222;28;20555;-75
2021/10/24 10:54:20;;;;;;;4.23;2.83;;;;;;;;;;5094390;28;20469;-73
2021/10/24 10:59:35;;;;;;;6.73;2.53;;;;;;;;;;5093982;28;20455;-75
2021/10/24 11:02:23;;;;;;;9.60;3.63;;;;;;;;;;5094150;28;20867;-75
2021/10/24 11:04:55;;;;;;;3.70;1.90;;;;;;;;;;5092974;28;20452;-74
2021/10/24 11:07:40;;;;;;;10.23;3.20;;;;;;;;;;5093357;28;20518;-74
2021/10/24 11:10:10;;;;;;;3.63;1.60;;;;;;;;;;5093531;28;20455;-74
2021/10/24 11:12:43;;;;;;;5.70;2.70;;;;;;;;;;5096733;28;20457;-75
2021/10/24 11:15:14;;;;;;;5.53;3.10;;;;;;;;;;5103847;28;20451;-73
2021/10/24 11:17:43;;;;;;;4.63;2.03;;;;;;;;;;5115111;28;20552;-74
2021/10/24 11:20:22;;;;;;;4.20;1.17;;;;;;;;;;5115403;28;20826;-74
2021/10/24 11:23:00;;;;;;;4.60;2.10;;;;;;;;;;5114898;28;20920;-75
2021/10/24 11:25:32;;;;;;;8.80;2.50;;;;;;;;;;5095176;28;20479;-74
2021/10/24 11:28:06;;;;;;;7.20;2.80;;;;;;;;;;5094284;28;20447;-76
2021/10/24 11:30:37;;;;;;;4.70;2.10;;;;;;;;;;5104170;28;20491;-75
2021/10/24 11:33:05;;;;;;;7.40;3.30;;;;;;;;;;5115602;28;20854;-74
2021/10/24 11:35:37;;;;;;;5.40;3.30;;;;;;;;;;5107362;28;20501;-74
2021/10/24 11:38:08;;;;;;;5.00;2.03;;;;;;;;;;5093560;28;20997;-74
2021/10/24 11:40:41;;;;;;;2.97;1.83;;;;;;;;;;5102565;28;20460;-75
2021/10/24 11:43:19;;;;;;;6.57;4.27;;;;;;;;;;5104541;28;20431;-75
2021/10/24 11:45:50;;;;;;;6.70;1.97;;;;;;;;;;5103437;28;20484;-74
2021/10/24 11:48:19;;;;;;;6.60;2.93;;;;;;;;;;5110585;28;20453;-74
2021/10/24 11:51:02;;;;;;;3.83;1.53;;;;;;;;;;5114549;28;20459;-74
2021/10/24 11:53:33;;;;;;;8.83;2.90;;;;;;;;;;5107482;28;20463;-73
2021/10/24 11:56:03;;;;;;;6.60;2.03;;;;;;;;;;5103236;28;20446;-75
2021/10/24 11:58:53;;;;;;;8.23;3.20;;;;;;;;;;5108539;28;20478;-74
2021/10/24 12:01:22;;;;;;;3.93;2.50;;;;;;;;;;5117383;28;20461;-74
2021/10/24 12:03:58;;;;;;;7.97;1.53;;;;;;;;;;5117339;28;20522;-74
2021/10/24 12:06:41;;;;;;;7.00;2.17;;;;;;;;;;5118219;28;20446;-75
2021/10/24 12:09:14;;;;;;;7.07;3.50;;;;;;;;;;5115364;28;20559;-75
2021/10/24 12:11:46;;;;;;;6.13;2.70;;;;;;;;;;5107996;28;20462;-75
2021/10/24 12:14:15;;;;;;;4.23;2.40;;;;;;;;;;5101787;28;20450;-74
2021/10/24 12:16:54;;;;;;;4.57;2.00;;;;;;;;;;5104163;28;20483;-74
2021/10/24 12:19:31;;;;;;;7.17;4.87;;;;;;;;;;5097568;28;20432;-74
2021/10/24 12:22:09;;;;;;;7.53;4.40;;;;;;;;;;5099167;28;20479;-74
2021/10/24 12:24:53;;;;;;;5.40;2.17;;;;;;;;;;5098706;28;20464;-75
2021/10/24 12:27:35;;;;;;;6.17;3.53;;;;;;;;;;5112323;28;20439;-76
2021/10/24 12:30:07;;;;;;;5.23;2.27;;;;;;;;;;5098950;28;20822;-75
2021/10/24 12:32:35;;;;;;;5.90;2.80;;;;;;;;;;5109586;28;20893;-75
2021/10/24 12:35:05;;;;;;;6.50;2.47;;;;;;;;;;5099246;28;20881;-75
2021/10/24 12:37:37;;;;;;;6.97;2.60;;;;;;;;;;5116719;28;20929;-74
2021/10/24 12:40:24;;;;;;;3.47;2.60;;;;;;;;;;5116456;28;20439;-75
2021/10/24 12:43:09;;;;;;;6.20;1.93;;;;;;;;;;5109693;28;20503;-74
2021/10/24 12:45:59;;;;;;;8.07;2.07;;;;;;;;;;5106912;28;20533;-74
2021/10/24 12:48:40;;;;;;;3.00;2.20;;;;;;;;;;5114682;28;20466;-76
2021/10/24 12:51:24;;;;;;;4.83;2.37;;;;;;;;;;5117676;28;20442;-74
2021/10/24 12:53:58;;;;;;;8.53;3.20;;;;;;;;;;5112273;28;20440;-75
2021/10/24 12:56:33;;;;;;;6.63;2.50;;;;;;;;;;5095757;28;20447;-75
2021/10/24 12:59:02;;;;;;;3.90;2.13;;;;;;;;;;5109893;28;20458;-73
2021/10/24 13:01:32;;;;;;;7.00;2.70;;;;;;;;;;5100555;28;20440;-74
2021/10/24 13:04:00;;;;;;;6.43;2.63;;;;;;;;;;5107788;28;20451;-75
2021/10/24 13:06:35;;;;;;;4.60;2.37;;;;;;;;;;5117550;28;20455;-74
2021/10/24 13:09:03;;;;;;;4.43;1.90;;;;;;;;;;5116216;28;20478;-74
2021/10/24 13:11:33;;;;;;;4.83;2.07;;;;;;;;;;5116882;28;20454;-75
2021/10/24 13:14:02;;;;;;;8.50;3.37;;;;;;;;;;5115778;28;20921;-74
2021/10/24 13:16:33;;;;;;;4.27;2.03;;;;;;;;;;5116893;28;20690;-75
2021/10/24 13:19:06;;;;;;;11.57;3.73;;;;;;;;;;5095180;28;20949;-74
2021/10/24 13:24:22;;;;;;;3.83;2.37;;;;;;;;;;5095449;28;20426;-73
2021/10/24 13:26:54;;;;;;;7.13;2.57;;;;;;;;;;5096028;28;20459;-74
2021/10/24 13:29:23;;;;;;;4.63;2.53;;;;;;;;;;5106189;28;20462;-75
2021/10/24 13:31:52;;;;;;;8.20;3.40;;;;;;;;;;5096561;28;20548;-74
2021/10/24 13:34:20;;;;;;;5.80;3.70;;;;;;;;;;5095622;28;20451;-74
2021/10/24 13:36:49;;;;;;;4.40;1.90;;;;;;;;;;5097534;28;20463;-74
2021/10/24 13:39:17;;;;;;;8.10;2.73;;;;;;;;;;5096669;28;20482;-75
2021/10/24 13:41:45;;;;;;;15.93;3.67;;;;;;;;;;5104346;28;20450;-74
2021/10/24 13:44:14;;;;;;;11.63;4.67;;;;;;;;;;5097896;28;20867;-74
2021/10/24 13:47:02;;;;;;;3.10;2.30;;;;;;;;;;5097744;28;20520;-74
2021/10/24 13:49:30;;;;;;;6.93;3.00;;;;;;;;;;5098306;28;20486;-74
2021/10/24 13:51:58;;;;;;;3.67;1.80;;;;;;;;;;5111075;28;20464;-73
2021/10/24 13:54:30;;;;;;;4.70;2.17;;;;;;;;;;5094777;28;20452;-74
2021/10/24 13:57:00;;;;;;;3.60;2.10;;;;;;;;;;5095481;28;20455;-73
2021/10/24 13:59:30;;;;;;;5.87;2.23;;;;;;;;;;5106264;28;20755;-74
2021/10/24 14:01:59;;;;;;;7.40;4.10;;;;;;;;;;5095523;28;20452;-75
2021/10/24 14:04:28;;;;;;;4.00;1.83;;;;;;;;;;5094755;28;20745;-74
2021/10/24 14:06:58;;;;;;;4.13;2.40;;;;;;;;;;5095401;28;20478;-75
2021/10/24 14:09:27;;;;;;;8.53;3.10;;;;;;;;;;5095789;28;20987;-74
2021/10/24 14:11:58;;;;;;;3.63;1.73;;;;;;;;;;5095350;28;20432;-74
2021/10/24 14:14:29;;;;;;;3.47;1.90;;;;;;;;;;5095211;28;20455;-75
2021/10/24 14:17:06;;;;;;;7.43;3.10;;;;;;;;;;5094109;28;20859;-75
2021/10/24 14:19:37;;;;;;;4.17;2.17;;;;;;;;;;5093250;28;20683;-73
2021/10/24 14:22:08;;;;;;;4.00;2.03;;;;;;;;;;5094815;28;20458;-74
2021/10/24 14:24:47;;;;;;;3.60;2.03;;;;;;;;;;5094327;28;20460;-74
2021/10/24 14:27:15;;;;;;;5.27;2.43;;;;;;;;;;5095312;28;20451;-74
2021/10/24 14:29:43;;;;;;;6.70;3.23;;;;;;;;;;5095054;28;20542;-74
2021/10/24 14:32:13;;;;;;;7.30;2.90;;;;;;;;;;5110410;28;20443;-74
2021/10/24 14:34:42;;;;;;;5.87;2.63;;;;;;;;;;5104699;28;20454;-73
2021/10/24 14:37:28;;;;;;;3.90;2.13;;;;;;;;;;5120123;27;20871;-74
2021/10/24 14:40:00;;;;;;;6.83;2.70;;;;;;;;;;5114887;28;20474;-72
2021/10/24 14:42:30;;;;;;;7.10;3.13;;;;;;;;;;5111777;28;20526;-73
2021/10/24 14:45:04;;;;;;;5.97;2.60;;;;;;;;;;5106125;28;20535;-72
2021/10/24 14:47:33;;;;;;;7.40;2.50;;;;;;;;;;5098950;28;20737;-75
2021/10/24 14:50:29;;;;;;;4.50;2.30;;;;;;;;;;5114021;28;20477;-74
2021/10/24 14:53:04;;;;;;;4.80;2.33;;;;;;;;;;5093479;28;20556;-75
2021/10/24 14:55:36;;;;;;;3.20;1.83;;;;;;;;;;5094953;28;20564;-75
2021/10/24 14:58:16;;;;;;;6.53;2.13;;;;;;;;;;5100281;28;20478;-74
2021/10/24 15:00:47;;;;;;;5.37;1.97;;;;;;;;;;5114830;28;20893;-73
2021/10/24 15:03:17;;;;;;;7.73;2.80;;;;;;;;;;5108102;28;20447;-73
2021/10/24 15:05:57;;;;;;;6.00;2.07;;;;;;;;;;5112774;28;20508;-73
2021/10/24 15:08:35;;;;;;;5.93;2.57;;;;;;;;;;5104768;28;20517;-73
2021/10/24 15:11:08;;;;;;;11.50;3.80;;;;;;;;;;5095349;28;20447;-73
2021/10/24 15:13:43;;;;;;;7.50;3.10;;;;;;;;;;5094037;28;20460;-74